Time;durP1;ratioP1;P1;durP2;ratioP2;P2;SDS_P1;SDS_P2;PMS_P1;PMS_P2;Temp;Humidity;BMP_temperature;BMP_pressure;BME280_temperature;BME280_humidity;BME280_pressure;Samples;Min_cycle;Max_cycle;Signal;HPM_P1;HPM_P2
2023/04/05 00:02:17;;;;;;;2.15;1.50;;;;;;;10.32;90.33;101087.13;5002112;28;20052;-47
2023/04/05 00:04:50;;;;;;;6.75;2.08;;;;;;;10.31;90.40;101085.50;5007114;28;20077;-47
2023/04/05 00:07:20;;;;;;;2.10;1.20;;;;;;;10.31;90.48;101082.72;5006114;28;20073;-45
2023/04/05 00:09:48;;;;;;;4.15;1.15;;;;;;;10.30;90.66;101086.63;5005785;28;20586;-49
2023/04/05 00:12:15;;;;;;;3.83;1.20;;;;;;;10.28;90.64;101080.63;5005818;28;20045;-45
2023/04/05 00:14:41;;;;;;;2.45;1.15;;;;;;;10.26;90.83;101077.41;5003268;28;20385;-45
2023/04/05 00:17:08;;;;;;;3.33;1.58;;;;;;;10.26;90.99;101068.28;5009135;28;20054;-45
2023/04/05 00:19:38;;;;;;;1.13;0.93;;;;;;;10.26;90.92;101069.09;5009407;28;20108;-49
2023/04/05 00:22:04;;;;;;;4.55;0.98;;;;;;;10.27;90.97;101064.38;5009356;28;20049;-45
2023/04/05 00:24:32;;;;;;;2.22;0.90;;;;;;;10.26;91.19;101066.31;5009588;28;20065;-46
2023/04/05 00:27:00;;;;;;;7.03;1.20;;;;;;;10.27;90.94;101056.06;5008193;28;20057;-45
2023/04/05 00:29:27;;;;;;;3.42;0.82;;;;;;;10.26;91.24;101052.50;5005293;28;20133;-46
2023/04/05 00:31:55;;;;;;;4.15;0.90;;;;;;;10.26;91.15;101058.03;5009549;28;20057;-45
2023/04/05 00:34:22;;;;;;;0.68;0.68;;;;;;;10.26;91.34;101055.25;4991756;28;20102;-44
2023/04/05 00:36:49;;;;;;;3.38;0.73;;;;;;;10.26;91.38;101057.22;5009125;28;20050;-44
2023/04/05 00:39:16;;;;;;;2.92;1.08;;;;;;;10.26;91.42;101048.91;5008943;28;20136;-46
2023/04/05 00:41:43;;;;;;;3.20;0.98;;;;;;;10.26;91.47;101046.94;4991853;28;20092;-50
2023/04/05 00:44:12;;;;;;;0.73;0.50;;;;;;;10.26;91.71;101038.66;5009466;28;20049;-45
2023/04/05 00:46:39;;;;;;;5.55;0.70;;;;;;;10.25;91.63;101039.78;5003840;28;20048;-45
2023/04/05 00:49:06;;;;;;;1.08;0.40;;;;;;;10.25;91.88;101027.91;5006968;28;20404;-45
2023/04/05 00:51:33;;;;;;;1.92;0.50;;;;;;;10.24;91.85;101027.13;5007350;28;20045;-45
2023/04/05 00:54:01;;;;;;;3.03;0.50;;;;;;;10.26;91.93;101029.53;5007585;28;20536;-52
2023/04/05 00:56:30;;;;;;;0.70;0.50;;;;;;;10.26;92.05;101022.06;5006034;28;20054;-46
2023/04/05 00:58:57;;;;;;;0.40;0.40;;;;;;;10.26;92.22;101024.81;4987205;28;20597;-50
2023/04/05 01:01:26;;;;;;;0.30;0.25;;;;;;;10.26;92.07;101022.06;5005873;28;20054;-45
2023/04/05 01:04:01;;;;;;;1.17;0.35;;;;;;;10.26;92.14;101019.28;5008831;28;20041;-45
2023/04/05 01:06:50;;;;;;;1.67;0.13;;;;;;;10.27;92.15;101015.34;4991513;28;20503;-44
2023/04/05 01:09:35;;;;;;;0.50;0.22;;;;;;;10.27;92.27;101003.50;5004035;28;20041;-45
2023/04/05 01:12:06;;;;;;;0.15;0.15;;;;;;;10.27;92.16;101012.59;5008760;28;20567;-46
2023/04/05 01:14:46;;;;;;;0.30;0.10;;;;;;;10.26;92.54;101019.28;5008787;28;20129;-51
2023/04/05 01:17:12;;;;;;;0.10;0.00;;;;;;;10.26;92.55;101010.97;5007952;28;20103;-48
2023/04/05 01:19:40;;;;;;;0.20;0.20;;;;;;;10.27;92.40;101009.03;5008740;28;20046;-45
2023/04/05 01:22:39;;;;;;;0.00;0.00;;;;;;;10.28;92.49;101003.16;5008862;28;20185;-44
2023/04/05 01:25:18;;;;;;;0.63;0.30;;;;;;;10.27;92.52;101001.50;4990833;28;20049;-44
2023/04/05 01:27:56;;;;;;;1.15;0.20;;;;;;;10.29;92.46;101012.25;5008433;28;20145;-44
2023/04/05 01:30:31;;;;;;;0.17;0.10;;;;;;;10.30;92.57;101011.09;5007169;28;20420;-47
2023/04/05 01:33:16;;;;;;;0.10;0.10;;;;;;;10.30;92.58;101002.78;5004700;28;20567;-45
2023/04/05 01:35:50;;;;;;;0.52;0.13;;;;;;;10.30;92.60;101011.91;5001722;28;20392;-46
2023/04/05 01:38:26;;;;;;;0.63;0.22;;;;;;;10.31;92.69;101010.78;4995855;28;20046;-45
2023/04/05 01:40:53;;;;;;;0.10;0.10;;;;;;;10.32;92.62;101008.81;5004961;28;20641;-45
2023/04/05 01:43:20;;;;;;;1.67;0.10;;;;;;;10.31;92.68;101005.25;5004028;28;20510;-45
2023/04/05 01:45:47;;;;;;;0.47;0.10;;;;;;;10.31;92.92;101005.25;4985276;28;20058;-45
2023/04/05 01:48:14;;;;;;;0.50;0.17;;;;;;;10.34;92.91;100999.03;5007436;28;20437;-50
2023/04/05 01:50:41;;;;;;;0.50;0.10;;;;;;;10.36;92.85;101007.00;5005227;28;20514;-45
2023/04/05 01:53:09;;;;;;;0.30;0.10;;;;;;;10.36;93.10;101002.28;5002972;28;20045;-45
2023/04/05 01:55:35;;;;;;;0.10;0.10;;;;;;;10.36;93.14;100998.69;5004515;28;20048;-46
2023/04/05 01:58:02;;;;;;;0.77;0.10;;;;;;;10.35;93.13;101006.19;5003896;28;20507;-45
2023/04/05 02:00:29;;;;;;;0.25;0.10;;;;;;;10.36;93.22;100993.97;5006134;28;20127;-45
2023/04/05 02:02:56;;;;;;;0.20;0.10;;;;;;;10.35;93.18;100986.81;5007910;28;20093;-50
2023/04/05 02:05:23;;;;;;;0.20;0.20;;;;;;;10.34;93.37;100976.91;5008213;28;20092;-45
2023/04/05 02:07:50;;;;;;;0.20;0.20;;;;;;;10.33;93.46;100975.28;5008386;28;20046;-45
2023/04/05 02:10:17;;;;;;;0.55;0.30;;;;;;;10.33;93.54;100968.91;5008391;28;20403;-45
2023/04/05 02:12:44;;;;;;;0.75;0.10;;;;;;;10.34;93.40;100965.84;5012024;28;20049;-46
2023/04/05 02:15:11;;;;;;;0.63;0.20;;;;;;;10.35;93.54;100969.41;5011560;28;20048;-45
2023/04/05 02:17:38;;;;;;;0.25;0.10;;;;;;;10.34;93.60;100971.38;5011096;28;20048;-50
2023/04/05 02:20:07;;;;;;;3.70;1.00;;;;;;;10.34;93.71;100971.38;5011710;28;20050;-45
2023/04/05 02:22:35;;;;;;;0.13;0.13;;;;;;;10.34;93.74;100982.44;4993917;28;20526;-46
2023/04/05 02:25:03;;;;;;;2.28;0.20;;;;;;;10.36;93.93;100965.47;5011449;28;20136;-46
2023/04/05 02:27:31;;;;;;;0.55;0.20;;;;;;;10.36;93.89;100958.00;5011732;28;20054;-45
2023/04/05 02:29:58;;;;;;;2.45;1.95;;;;;;;10.37;94.03;100959.63;5009914;28;20500;-48
2023/04/05 02:32:25;;;;;;;0.60;0.10;;;;;;;10.37;93.98;100950.50;4997828;28;20050;-51
2023/04/05 02:34:51;;;;;;;0.20;0.20;;;;;;;10.36;94.05;100957.19;5007736;28;20092;-45
2023/04/05 02:37:19;;;;;;;0.35;0.10;;;;;;;10.34;94.16;100952.00;5009773;28;20069;-45
2023/04/05 02:39:46;;;;;;;3.08;0.35;;;;;;;10.34;94.14;100952.00;5007620;28;20045;-45
2023/04/05 02:42:12;;;;;;;1.00;0.25;;;;;;;10.33;94.35;100942.06;5008841;28;20058;-45
2023/04/05 02:44:39;;;;;;;1.20;0.20;;;;;;;10.33;94.35;100938.47;5006635;28;20045;-45
2023/04/05 02:47:06;;;;;;;0.10;0.10;;;;;;;10.32;94.41;100928.56;5005392;28;20121;-45
2023/04/05 02:49:33;;;;;;;0.38;0.10;;;;;;;10.32;94.40;100939.63;4996839;28;20050;-51
2023/04/05 02:52:00;;;;;;;0.85;0.20;;;;;;;10.32;94.58;100936.88;5005452;28;20503;-46
2023/04/05 02:54:26;;;;;;;1.13;0.20;;;;;;;10.33;94.92;100931.00;5004786;28;20045;-53
2023/04/05 02:56:56;;;;;;;0.20;0.20;;;;;;;10.34;94.71;100927.09;5006021;28;20054;-49
2023/04/05 02:59:23;;;;;;;5.63;0.52;;;;;;;10.34;94.68;100927.09;5005888;28;20083;-46
2023/04/05 03:01:50;;;;;;;0.47;0.15;;;;;;;10.34;94.73;100929.84;5051337;23;20116;-47
2023/04/05 03:04:17;;;;;;;1.88;0.20;;;;;;;10.35;94.86;100927.91;5030966;28;20049;-45
2023/04/05 03:06:47;;;;;;;0.10;0.10;;;;;;;10.36;94.70;100912.91;5013514;28;20071;-47
2023/04/05 03:09:14;;;;;;;0.28;0.28;;;;;;;10.37;94.85;100914.53;5030617;28;20080;-45
2023/04/05 03:11:41;;;;;;;3.00;0.30;;;;;;;10.36;94.91;100913.72;5031279;28;20046;-50
2023/04/05 03:14:07;;;;;;;0.55;0.20;;;;;;;10.36;94.83;100919.25;5013126;28;20052;-45
2023/04/05 03:16:34;;;;;;;0.30;0.20;;;;;;;10.35;95.05;100912.06;5029885;28;20084;-45
2023/04/05 03:19:04;;;;;;;0.20;0.20;;;;;;;10.36;95.22;100913.72;5030673;28;20076;-46
2023/04/05 03:21:32;;;;;;;1.70;0.30;;;;;;;10.37;95.23;100909.00;5030654;28;20048;-45
2023/04/05 03:23:59;;;;;;;0.65;0.52;;;;;;;10.38;95.41;100907.81;5029899;28;20038;-46
2023/04/05 03:26:26;;;;;;;0.15;0.15;;;;;;;10.36;95.36;100907.34;5030125;28;20163;-50
2023/04/05 03:28:53;;;;;;;0.20;0.20;;;;;;;10.36;95.42;100908.19;5030456;28;20152;-48
2023/04/05 03:31:20;;;;;;;0.80;0.15;;;;;;;10.35;95.34;100898.25;5030284;28;20136;-48
2023/04/05 03:33:47;;;;;;;2.22;0.20;;;;;;;10.35;95.58;100900.22;5013160;28;20080;-46
2023/04/05 03:36:15;;;;;;;1.38;0.17;;;;;;;10.35;95.79;100895.47;5029937;28;20042;-48
2023/04/05 03:38:44;;;;;;;0.77;0.10;;;;;;;10.34;95.76;100899.41;5030294;28;20049;-46
2023/04/05 03:41:11;;;;;;;0.57;0.15;;;;;;;10.33;95.86;100897.78;5030027;28;20045;-45
2023/04/05 03:43:38;;;;;;;1.30;0.25;;;;;;;10.34;95.96;100893.06;5030648;28;20053;-45
2023/04/05 03:46:05;;;;;;;0.50;0.20;;;;;;;10.34;96.02;100891.09;5024923;28;20077;-45
2023/04/05 03:48:32;;;;;;;0.85;0.10;;;;;;;10.34;95.96;100898.59;5029834;28;20052;-46
2023/04/05 03:50:58;;;;;;;1.80;0.30;;;;;;;10.34;96.03;100888.34;5029782;28;20056;-45
2023/04/05 03:53:28;;;;;;;1.08;0.10;;;;;;;10.33;96.14;100892.25;5025770;28;20068;-45
2023/04/05 03:55:55;;;;;;;1.27;0.20;;;;;;;10.33;96.28;100896.97;5029824;28;20058;-46
2023/04/05 03:58:22;;;;;;;0.50;0.20;;;;;;;10.33;96.37;100886.72;5030004;28;20052;-45
2023/04/05 04:00:49;;;;;;;0.63;0.17;;;;;;;10.33;96.40;100883.13;5022509;28;20045;-47
2023/04/05 04:03:16;;;;;;;0.85;0.20;;;;;;;10.34;96.49;100882.00;5029737;28;20049;-48
2023/04/05 04:05:42;;;;;;;1.15;0.20;;;;;;;10.35;96.65;100884.41;5029438;28;20052;-49
2023/04/05 04:08:10;;;;;;;0.50;0.20;;;;;;;10.34;96.83;100874.50;5029700;28;20052;-45
2023/04/05 04:10:36;;;;;;;0.30;0.25;;;;;;;10.35;96.87;100875.31;5029772;28;20465;-46
2023/04/05 04:13:05;;;;;;;0.93;0.40;;;;;;;10.35;96.83;100878.88;5029378;28;20088;-45
2023/04/05 04:15:32;;;;;;;0.47;0.30;;;;;;;10.35;96.97;100878.88;5028894;28;20128;-45
2023/04/05 04:17:58;;;;;;;1.33;0.38;;;;;;;10.36;97.24;100880.50;5029828;28;20041;-45
2023/04/05 04:20:25;;;;;;;0.85;0.30;;;;;;;10.36;97.18;100874.97;5029680;28;20095;-45
2023/04/05 04:22:52;;;;;;;1.75;0.38;;;;;;;10.36;97.29;100874.97;5029211;28;20462;-46
2023/04/05 04:25:20;;;;;;;0.40;0.38;;;;;;;10.36;97.40;100868.63;5029756;28;20037;-45
2023/04/05 04:27:49;;;;;;;0.55;0.32;;;;;;;10.36;97.50;100874.97;5029116;28;20045;-50
2023/04/05 04:30:15;;;;;;;1.65;0.30;;;;;;;10.35;97.76;100870.56;5029309;28;20136;-45
2023/04/05 04:32:55;;;;;;;0.75;0.38;;;;;;;10.37;97.81;100870.25;5028925;28;20155;-45
2023/04/05 04:35:24;;;;;;;0.95;0.35;;;;;;;10.36;97.76;100863.06;5028695;28;20131;-45
2023/04/05 04:37:58;;;;;;;1.02;0.40;;;;;;;10.36;98.06;100860.31;5029183;28;20393;-45
2023/04/05 04:40:39;;;;;;;0.45;0.20;;;;;;;10.36;98.10;100874.16;5029237;28;20509;-45
2023/04/05 04:43:13;;;;;;;0.95;0.45;;;;;;;10.35;98.24;100867.81;5016896;28;20037;-45
2023/04/05 04:45:40;;;;;;;0.40;0.32;;;;;;;10.35;98.25;100862.25;5028267;28;20053;-45
2023/04/05 04:48:07;;;;;;;1.73;0.50;;;;;;;10.37;98.34;100868.28;5011120;28;20041;-46
2023/04/05 04:50:34;;;;;;;0.80;0.35;;;;;;;10.37;98.47;100861.94;5011209;28;20140;-45
2023/04/05 04:53:01;;;;;;;0.90;0.20;;;;;;;10.36;98.50;100863.91;5027206;28;20057;-45
2023/04/05 04:55:28;;;;;;;0.82;0.40;;;;;;;10.37;98.84;100862.75;5011461;28;20466;-49
2023/04/05 04:57:55;;;;;;;2.10;0.82;;;;;;;10.38;98.80;100861.59;5028872;28;20549;-45
2023/04/05 05:00:22;;;;;;;0.40;0.40;;;;;;;10.37;98.90;100857.22;5028564;28;20041;-45
2023/04/05 05:02:51;;;;;;;0.50;0.40;;;;;;;10.37;99.02;100865.53;5028529;28;20076;-45
2023/04/05 05:05:21;;;;;;;3.40;0.52;;;;;;;10.36;99.25;100863.91;5028570;28;20041;-46
2023/04/05 05:07:49;;;;;;;1.90;0.70;;;;;;;10.37;99.18;100848.09;5028737;28;20049;-45
2023/04/05 05:10:17;;;;;;;1.58;1.38;;;;;;;10.37;99.33;100850.88;5029160;28;20128;-45
2023/04/05 05:12:44;;;;;;;0.40;0.32;;;;;;;10.38;99.24;100849.69;5028596;28;20057;-53
2023/04/05 05:15:11;;;;;;;1.33;0.52;;;;;;;10.36;99.49;100844.53;5027825;28;20049;-45
2023/04/05 05:17:38;;;;;;;0.75;0.30;;;;;;;10.36;99.69;100844.53;5028783;28;20091;-45
2023/04/05 05:20:09;;;;;;;1.40;0.30;;;;;;;10.37;99.63;100826.78;5028511;28;20124;-45
2023/04/05 05:22:38;;;;;;;0.35;0.22;;;;;;;10.37;99.87;100840.63;5028811;28;20049;-46
2023/04/05 05:25:05;;;;;;;1.10;0.40;;;;;;;10.38;100.00;100827.56;5028051;28;20049;-46
2023/04/05 05:27:32;;;;;;;1.02;0.45;;;;;;;10.37;99.94;100832.31;5029006;28;20042;-45
2023/04/05 05:30:00;;;;;;;0.30;0.30;;;;;;;10.37;100.00;100824.00;5017863;28;20068;-45
2023/04/05 05:32:27;;;;;;;1.15;0.57;;;;;;;10.38;100.00;100831.16;5028203;28;20049;-45
2023/04/05 05:34:54;;;;;;;2.72;0.50;;;;;;;10.38;100.00;100828.38;5028434;28;20041;-48
2023/04/05 05:37:28;;;;;;;0.65;0.40;;;;;;;10.39;100.00;100824.47;5028523;28;20046;-46
2023/04/05 05:39:55;;;;;;;0.50;0.50;;;;;;;10.39;100.00;100826.44;5028368;28;20043;-45
2023/04/05 05:42:22;;;;;;;0.50;0.40;;;;;;;10.39;100.00;100827.25;5029536;28;20049;-46
2023/04/05 05:44:49;;;;;;;0.55;0.35;;;;;;;10.42;100.00;100827.69;5038780;28;20120;-46
2023/04/05 05:47:17;;;;;;;1.08;1.05;;;;;;;10.42;100.00;100838.78;5031954;28;20049;-46
2023/04/05 05:49:44;;;;;;;1.15;0.60;;;;;;;10.42;100.00;100834.03;5032528;28;20061;-46
2023/04/05 05:52:11;;;;;;;1.55;0.40;;;;;;;10.43;100.00;100837.63;5032473;28;20042;-45
2023/04/05 05:54:37;;;;;;;0.60;0.40;;;;;;;10.43;100.00;100832.91;5032007;28;20083;-45
2023/04/05 05:57:04;;;;;;;0.50;0.32;;;;;;;10.45;100.00;100838.09;5032067;28;20061;-44
2023/04/05 05:59:31;;;;;;;2.30;0.47;;;;;;;10.45;100.00;100827.84;5032294;28;20049;-49
2023/04/05 06:01:58;;;;;;;0.93;0.40;;;;;;;10.47;100.00;100835.78;5032056;28;20057;-45
2023/04/05 06:04:25;;;;;;;0.50;0.50;;;;;;;10.48;100.00;100838.22;5014494;28;20403;-44
2023/04/05 06:06:53;;;;;;;0.88;0.40;;;;;;;10.49;100.00;100837.06;5031948;28;20045;-46
2023/04/05 06:09:22;;;;;;;1.73;0.40;;;;;;;10.50;100.00;100835.09;5032618;28;20046;-44
2023/04/05 06:11:52;;;;;;;3.33;0.40;;;;;;;10.52;100.00;100830.03;5031789;28;20057;-44
2023/04/05 06:14:23;;;;;;;0.40;0.32;;;;;;;10.55;100.00;100832.09;5025799;28;20060;-44
2023/04/05 06:16:50;;;;;;;2.72;0.25;;;;;;;10.57;100.00;100827.84;5030031;28;20394;-50
2023/04/05 06:19:16;;;;;;;1.20;0.63;;;;;;;10.60;100.00;100831.88;5042588;28;20052;-46
2023/04/05 06:21:43;;;;;;;2.58;0.43;;;;;;;10.61;100.00;100819.66;5031662;28;20080;-47
2023/04/05 06:24:10;;;;;;;0.38;0.30;;;;;;;10.62;100.00;100826.81;5031840;28;20049;-46
2023/04/05 06:26:38;;;;;;;2.17;0.40;;;;;;;10.65;100.00;100832.47;5031337;28;20076;-46
2023/04/05 06:29:05;;;;;;;2.20;0.35;;;;;;;10.66;100.00;100822.22;5031521;28;20057;-45
2023/04/05 06:31:34;;;;;;;1.58;0.65;;;;;;;10.68;100.00;100819.91;5031828;28;20056;-45
2023/04/05 06:34:01;;;;;;;1.45;0.30;;;;;;;10.71;100.00;100830.28;5031844;28;20072;-47
2023/04/05 06:36:32;;;;;;;0.30;0.30;;;;;;;10.72;100.00;100818.06;5018696;28;20050;-51
2023/04/05 06:39:00;;;;;;;1.50;0.57;;;;;;;10.74;100.00;100818.53;5031471;28;20049;-44
2023/04/05 06:41:27;;;;;;;1.95;0.30;;;;;;;10.76;100.00;100819.00;5031405;28;20052;-43
2023/04/05 06:43:55;;;;;;;2.00;1.42;;;;;;;10.78;100.00;100819.44;5030315;28;20095;-48
2023/04/05 06:46:22;;;;;;;0.93;0.57;;;;;;;10.81;100.00;100816.00;4998501;28;20057;-46
2023/04/05 06:48:50;;;;;;;0.85;0.70;;;;;;;10.83;100.00;100817.25;5024993;28;20406;-44
2023/04/05 06:51:17;;;;;;;3.03;0.55;;;;;;;10.86;100.00;100815.75;5030692;28;20128;-44
2023/04/05 06:53:44;;;;;;;2.35;0.50;;;;;;;10.88;100.00;100813.47;5029764;28;20453;-43
2023/04/05 06:56:12;;;;;;;2.00;0.65;;;;;;;10.93;100.00;100816.03;5030520;28;20041;-44
2023/04/05 06:58:38;;;;;;;2.03;0.68;;;;;;;10.96;100.00;100807.81;5029415;28;20060;-43
2023/04/05 07:01:06;;;;;;;1.38;0.60;;;;;;;11.00;100.00;100811.50;5030226;28;20403;-45
2023/04/05 07:03:33;;;;;;;1.05;0.65;;;;;;;11.05;100.00;100810.47;5030441;28;20069;-46
2023/04/05 07:06:00;;;;;;;1.45;0.90;;;;;;;11.12;100.00;100815.44;5030287;28;20080;-43
2023/04/05 07:08:28;;;;;;;1.65;0.52;;;;;;;11.18;100.00;100816.81;5030936;28;20067;-45
2023/04/05 07:10:55;;;;;;;2.25;0.60;;;;;;;11.23;100.00;100813.78;5029915;28;20045;-44
2023/04/05 07:13:23;;;;;;;1.60;0.55;;;;;;;11.30;100.00;100819.59;5011555;28;20085;-44
2023/04/05 07:15:51;;;;;;;2.45;0.80;;;;;;;11.35;100.00;100825.69;5030326;28;20128;-44
2023/04/05 07:18:18;;;;;;;4.35;0.80;;;;;;;11.40;100.00;100811.59;5028464;28;20072;-44
2023/04/05 07:20:47;;;;;;;2.35;0.68;;;;;;;11.42;100.00;100812.06;5012626;28;20507;-44
2023/04/05 07:23:13;;;;;;;2.30;0.55;;;;;;;11.44;100.00;100815.28;5012872;28;20365;-47
2023/04/05 07:25:40;;;;;;;1.85;0.60;;;;;;;11.45;100.00;100805.00;5024344;28;20057;-44
2023/04/05 07:28:07;;;;;;;4.80;0.60;;;;;;;11.47;100.00;100811.81;5019131;28;20037;-45
2023/04/05 07:30:35;;;;;;;3.55;0.70;;;;;;;11.48;100.00;100804.31;5030084;28;20415;-45
2023/04/05 07:33:02;;;;;;;3.67;0.70;;;;;;;11.49;100.00;100803.94;5030317;28;20059;-50
2023/04/05 07:35:29;;;;;;;1.48;0.57;;;;;;;11.51;100.00;100809.97;5030374;28;20060;-48
2023/04/05 07:37:55;;;;;;;3.83;0.73;;;;;;;11.52;100.00;100806.00;5012499;28;20050;-46
2023/04/05 07:40:22;;;;;;;3.00;0.88;;;;;;;11.55;100.00;100804.50;5029964;28;20055;-46
2023/04/05 07:42:49;;;;;;;7.47;4.22;;;;;;;11.58;100.00;100803.81;5030354;28;20068;-45
2023/04/05 07:45:16;;;;;;;5.45;0.75;;;;;;;11.60;100.00;100807.84;5028387;28;20041;-46
2023/04/05 07:47:42;;;;;;;2.00;1.00;;;;;;;11.61;100.00;100808.66;5029387;28;20045;-52
2023/04/05 07:50:13;;;;;;;2.75;1.42;;;;;;;11.63;100.00;100795.25;5029739;28;20050;-45
2023/04/05 07:52:41;;;;;;;3.13;1.08;;;;;;;11.66;100.00;100810.38;5029764;28;20547;-50
2023/04/05 07:55:09;;;;;;;4.25;0.85;;;;;;;11.68;100.00;100791.41;5022262;28;20128;-50
2023/04/05 07:57:36;;;;;;;3.85;0.93;;;;;;;11.70;100.00;100795.50;5027023;28;20061;-50
2023/04/05 08:00:09;;;;;;;3.83;1.17;;;;;;;11.75;100.00;100794.44;5029264;28;20467;-45
2023/04/05 08:02:36;;;;;;;3.30;1.10;;;;;;;11.81;100.00;100793.03;4999460;28;20072;-46
2023/04/05 08:05:04;;;;;;;4.63;1.10;;;;;;;11.87;100.00;100789.66;5029290;28;20051;-48
2023/04/05 08:07:31;;;;;;;5.15;1.15;;;;;;;11.93;100.00;100787.44;5029452;28;20056;-46
2023/04/05 08:09:58;;;;;;;4.05;1.10;;;;;;;11.98;100.00;100779.66;5029465;28;20442;-45
2023/04/05 08:12:27;;;;;;;5.53;1.23;;;;;;;12.03;100.00;100787.75;5029762;28;20053;-46
2023/04/05 08:14:53;;;;;;;4.38;1.45;;;;;;;12.11;100.00;100788.75;5029068;28;20747;-47
2023/04/05 08:17:20;;;;;;;3.90;1.23;;;;;;;12.20;100.00;100786.63;5030044;28;20065;-45
2023/04/05 08:19:48;;;;;;;1.58;0.98;;;;;;;12.30;100.00;100779.72;5011681;28;20057;-45
2023/04/05 08:22:16;;;;;;;6.13;1.02;;;;;;;12.38;100.00;100785.13;5029151;28;20033;-49
2023/04/05 08:24:43;;;;;;;2.65;1.08;;;;;;;12.49;100.00;100783.44;5011791;28;20056;-45
2023/04/05 08:27:10;;;;;;;1.45;0.80;;;;;;;12.61;100.00;100782.53;5028747;28;20047;-51
2023/04/05 08:29:37;;;;;;;2.55;0.85;;;;;;;12.68;100.00;100782.75;5029181;28;20780;-46
2023/04/05 08:32:04;;;;;;;8.52;2.03;;;;;;;12.77;100.00;100788.91;5029056;28;20115;-45
2023/04/05 08:34:31;;;;;;;2.55;1.00;;;;;;;12.88;100.00;100784.44;5041680;28;20088;-47
2023/04/05 08:36:59;;;;;;;4.43;1.10;;;;;;;13.00;100.00;100786.31;5029153;28;20405;-45
2023/04/05 08:39:26;;;;;;;1.52;0.98;;;;;;;13.06;100.00;100793.19;5029041;28;20045;-45
2023/04/05 08:42:14;;;;;;;5.57;1.30;;;;;;;13.10;100.00;100781.03;5029015;28;20041;-54
2023/04/05 08:44:43;;;;;;;4.97;1.98;;;;;;;13.11;100.00;100782.63;5026951;28;20045;-45
2023/04/05 08:47:14;;;;;;;4.05;0.75;;;;;;;13.12;100.00;100789.00;5029150;28;21029;-50
2023/04/05 08:49:44;;;;;;;8.55;1.63;;;;;;;13.13;100.00;100785.84;5029630;28;20395;-46
2023/04/05 08:52:11;;;;;;;7.07;1.83;;;;;;;13.15;100.00;100785.50;5028758;28;20053;-45
2023/04/05 08:54:38;;;;;;;3.67;1.08;;;;;;;13.14;100.00;100793.03;5029318;28;20041;-46
2023/04/05 08:57:06;;;;;;;5.07;1.02;;;;;;;13.15;99.92;100783.53;5028211;28;20470;-46
2023/04/05 08:59:37;;;;;;;14.25;1.63;;;;;;;13.15;99.87;100772.41;5028718;28;20072;-45
2023/04/05 09:02:10;;;;;;;5.05;1.13;;;;;;;13.15;99.83;100774.38;5028655;28;20060;-49
2023/04/05 09:04:43;;;;;;;7.75;2.70;;;;;;;13.12;99.52;100789.00;5029179;28;20056;-46
2023/04/05 09:07:12;;;;;;;4.82;0.88;;;;;;;13.12;99.37;100780.66;5033799;28;20556;-47
2023/04/05 09:09:43;;;;;;;1.58;0.57;;;;;;;13.13;99.26;100780.28;5035888;28;20566;-48
2023/04/05 09:12:10;;;;;;;6.35;1.42;;;;;;;13.14;99.05;100786.66;5028446;28;20040;-54
2023/04/05 09:14:40;;;;;;;4.18;0.80;;;;;;;13.17;98.89;100786.75;5028494;28;20475;-45
2023/04/05 09:17:08;;;;;;;2.92;0.60;;;;;;;13.22;98.51;100794.81;5015655;28;20056;-48
2023/04/05 09:19:35;;;;;;;1.05;0.60;;;;;;;13.27;98.24;100786.19;5029012;28;20153;-48
2023/04/05 09:22:09;;;;;;;1.98;0.63;;;;;;;13.38;97.93;100792.00;5017258;28;20574;-45
2023/04/05 09:24:43;;;;;;;5.35;2.85;;;;;;;13.45;97.72;100783.78;5035470;28;20045;-46
2023/04/05 09:27:12;;;;;;;2.30;0.75;;;;;;;13.50;97.45;100783.53;5024492;28;20137;-51
2023/04/05 09:29:41;;;;;;;3.03;0.88;;;;;;;13.53;97.03;100788.34;5034120;28;20108;-50
2023/04/05 09:32:09;;;;;;;2.83;0.47;;;;;;;13.52;96.92;100785.94;5045568;28;20068;-49
2023/04/05 09:34:37;;;;;;;2.47;1.20;;;;;;;13.50;96.83;100789.09;5037371;28;20132;-46
2023/04/05 09:37:14;;;;;;;1.33;0.60;;;;;;;13.52;96.63;100795.09;5016778;28;20115;-50
2023/04/05 09:39:42;;;;;;;2.13;0.40;;;;;;;13.55;96.75;100785.22;5034444;28;20518;-47
2023/04/05 09:42:14;;;;;;;5.68;0.60;;;;;;;13.74;96.73;100782.47;5035130;28;20542;-47
2023/04/05 09:45:03;;;;;;;2.30;0.85;;;;;;;13.90;95.80;100792.34;5034563;28;20562;-49
2023/04/05 09:47:35;;;;;;;7.22;0.63;;;;;;;13.90;95.51;100786.75;5034739;28;20509;-54
2023/04/05 09:50:14;;;;;;;4.25;1.00;;;;;;;13.88;95.25;100783.53;5016745;28;20139;-47
2023/04/05 09:52:42;;;;;;;3.58;0.60;;;;;;;13.87;95.17;100786.72;5034882;28;20080;-48
2023/04/05 09:55:09;;;;;;;5.78;0.88;;;;;;;13.86;94.75;100790.66;5017113;28;20116;-44
2023/04/05 09:57:38;;;;;;;7.70;2.08;;;;;;;13.87;94.63;100789.50;5034930;28;20063;-47
2023/04/05 10:00:15;;;;;;;3.25;1.10;;;;;;;13.87;94.67;100793.06;5034620;28;20045;-45
2023/04/05 10:02:52;;;;;;;3.30;0.90;;;;;;;13.88;94.50;100794.69;4991743;28;20507;-48
2023/04/05 10:05:23;;;;;;;3.78;0.90;;;;;;;13.91;94.50;100790.34;5034694;28;20119;-50
2023/04/05 10:07:51;;;;;;;5.85;0.60;;;;;;;13.95;94.28;100789.25;5034478;28;20539;-52
2023/04/05 10:10:19;;;;;;;4.65;0.68;;;;;;;14.01;93.98;100790.56;5034173;28;20135;-48
2023/04/05 10:12:48;;;;;;;2.60;0.70;;;;;;;14.16;93.93;100785.28;5034668;28;20053;-49
2023/04/05 10:15:15;;;;;;;1.65;0.85;;;;;;;14.36;93.43;100787.72;5035181;28;20451;-46
2023/04/05 10:17:59;;;;;;;2.20;0.80;;;;;;;14.53;92.88;100794.78;5035068;28;20038;-45
2023/04/05 10:20:29;;;;;;;1.17;0.35;;;;;;;14.56;92.42;100782.91;5017186;28;20602;-45
2023/04/05 10:23:04;;;;;;;5.63;0.50;;;;;;;14.61;92.06;100782.59;5034603;28;20056;-48
2023/04/05 10:25:52;;;;;;;3.03;0.57;;;;;;;14.64;91.95;100793.78;5033961;28;20483;-48
2023/04/05 10:28:36;;;;;;;1.85;0.57;;;;;;;14.67;91.58;100781.09;5034554;28;20107;-51
2023/04/05 10:31:19;;;;;;;2.33;0.80;;;;;;;14.67;91.18;100783.88;5034242;28;20114;-46
2023/04/05 10:34:12;;;;;;;2.00;0.45;;;;;;;14.70;90.75;100779.53;5015263;28;20095;-46
2023/04/05 10:36:39;;;;;;;2.63;0.75;;;;;;;14.78;90.69;100776.50;5019312;28;20049;-47
2023/04/05 10:39:15;;;;;;;5.57;0.68;;;;;;;14.94;90.38;100779.16;4994689;28;20100;-50
2023/04/05 10:41:52;;;;;;;3.55;0.93;;;;;;;15.03;89.90;100774.94;5031230;28;20053;-50
2023/04/05 10:44:20;;;;;;;2.28;0.70;;;;;;;15.05;89.45;100775.38;5029437;28;20652;-49
2023/04/05 10:46:53;;;;;;;;;;;;;;;15.12;89.46;100775.47;5032137;28;20384;-47
2023/04/05 10:49:38;;;;;;;4.55;0.90;;;;;;;15.20;88.79;100779.16;5031347;28;19956;-46
2023/04/05 10:52:05;;;;;;;4.35;0.63;;;;;;;15.16;88.18;100776.34;5031410;28;20390;-45
2023/04/05 10:54:35;;;;;;;4.13;1.52;;;;;;;15.18;88.02;100776.75;5029984;28;20060;-46
2023/04/05 10:57:06;;;;;;;1.92;0.73;;;;;;;15.24;87.96;100772.47;5029143;28;20088;-46
2023/04/05 10:59:40;;;;;;;7.15;1.80;;;;;;;15.54;87.62;100769.72;5030953;28;20526;-46
2023/04/05 11:02:08;;;;;;;3.17;0.85;;;;;;;15.88;86.20;100766.97;5031031;28;21009;-46
2023/04/05 11:04:35;;;;;;;2.75;0.55;;;;;;;15.98;85.33;100767.09;5030293;28;20514;-48
2023/04/05 11:07:19;;;;;;;6.05;1.10;;;;;;;16.00;85.00;100772.28;5031961;28;20061;-48
2023/04/05 11:10:03;;;;;;;2.60;0.80;;;;;;;16.13;84.80;100763.28;5002228;28;21636;-49
2023/04/05 11:12:45;;;;;;;2.85;0.50;;;;;;;16.37;84.10;100762.75;5028975;28;20159;-49
2023/04/05 11:15:27;;;;;;;3.20;0.80;;;;;;;16.51;83.34;100773.25;5003598;28;20189;-50
2023/04/05 11:18:21;;;;;;;;;;;;;;;16.54;83.06;100761.34;4990562;28;21188;-49
2023/04/05 11:20:54;;;;;;;2.78;0.80;;;;;;;16.68;82.64;100763.47;5013140;28;19931;-49
2023/04/05 11:23:23;;;;;;;4.65;1.10;;;;;;;16.67;81.60;100764.66;5012814;28;20069;-48
2023/04/05 11:25:53;;;;;;;7.35;0.95;;;;;;;16.61;81.59;100755.00;5028721;28;20041;-46
2023/04/05 11:28:30;;;;;;;1.67;0.75;;;;;;;16.54;81.55;100752.16;5030285;28;20056;-46
2023/04/05 11:31:11;;;;;;;3.22;0.98;;;;;;;16.58;82.02;100759.38;5005337;28;20179;-53
2023/04/05 11:33:54;;;;;;;7.53;0.85;;;;;;;16.58;81.41;100756.59;4988983;28;20407;-50
2023/04/05 11:36:32;;;;;;;3.80;0.63;;;;;;;16.53;80.76;100753.34;4967371;28;20045;-48